Latest Coastal Weather Observations for Lihou Reef Lighthouse

IDQ60701

Issued at 11:35 pm EST Friday 24 October 2014 (issued every 10 minutes, with the page automatically refreshed every 10 minutes)

About coastal observations | Map of coastal stations | Coastal observations for QLD | Marine services | Other Formats
Station Details ID: 200880 Name: LIHOU REEF LIGHTHOUSE Lat: -17.13 Lon: 152.15 Height: 0.0 m
Data from the previous 72 hours. | See also: Recent months for locations in Queensland
Date/Time
EST
Temp

°C
Wind Pressure Rain
since 9am
mm
Weather Cloud Vis
km
Sea
Height
m
Swell
Dir
 
Speed
knots
Gust
knots
hPa Trend Height
m
Period
s
Dir
24/11:30pm 24.0 ESE 13 16 1017.2 - - - - - - - - -
24/11:00pm 23.1 ESE 19 26 1017.7 - - - - - - - - -
24/10:30pm 24.6 ESE 17 19 1017.7 - - - - - - - - -
24/10:00pm 24.4 SE 18 21 1017.8 - - - - - - - - -
24/09:30pm 24.4 SE 16 20 1017.9 - - - - - - - - -
24/09:00pm 24.5 SE 17 21 1017.9 - - - - - - - - -
24/08:30pm 24.5 SE 18 21 1017.7 - - - - - - - - -
24/08:00pm 24.4 SE 18 22 1017.4 - - - - - - - - -
24/07:30pm 24.2 SE 19 23 1016.9 - - - - - - - - -
24/07:00pm 24.5 SE 19 23 1016.7 - - - - - - - - -
24/06:30pm 24.6 SE 19 23 1016.7 - - - - - - - - -
24/06:00pm 24.6 SE 19 23 1016.3 - - - - - - - - -
24/05:30pm 24.5 SE 20 25 1015.8 - - - - - - - - -
24/05:00pm 24.7 SE 19 24 1015.5 - - - - - - - - -
24/04:30pm 24.6 SE 20 23 1014.9 - - - - - - - - -
24/04:00pm 24.6 SE 20 23 1014.7 - - - - - - - - -
24/03:30pm 24.7 SE 19 22 1014.7 - - - - - - - - -
24/03:00pm 24.7 SE 19 23 1014.7 - - - - - - - - -
24/02:30pm 24.8 SE 20 23 1014.9 - - - - - - - - -
24/02:00pm 24.8 ESE 18 22 1015.1 - - - - - - - - -
24/01:30pm 24.9 ESE 17 21 1015.4 - - - - - - - - -
24/01:00pm 24.6 SE 17 20 1015.5 - - - - - - - - -
24/12:30pm 24.7 SE 17 20 1016.1 - - - - - - - - -
24/12:00pm 24.8 SE 17 20 1016.4 - - - - - - - - -
24/11:30am 24.8 SE 16 19 1016.9 - - - - - - - - -
24/11:00am 25.0 SE 16 19 1017.2 - - - - - - - - -
24/10:30am 25.1 ESE 15 19 1017.5 - - - - - - - - -
24/10:00am 24.8 ESE 17 20 1017.7 - - - - - - - - -
24/09:30am 24.9 ESE 17 21 1017.7 - - - - - - - - -
24/09:00am 24.9 SE 16 20 1017.8 - - - - - - - - -
24/08:30am 24.6 ESE 17 21 1017.9 - - - - - - - - -
24/08:00am 24.6 ESE 17 22 1017.8 - - - - - - - - -
24/07:30am 24.6 SE 18 23 1017.4 - - - - - - - - -
24/07:00am 24.4 SE 19 22 1017.0 - - - - - - - - -
24/06:30am 24.2 SE 17 21 1016.8 - - - - - - - - -
24/06:00am 24.3 SE 19 23 1016.4 - - - - - - - - -
24/05:30am 23.9 SE 19 23 1016.2 - - - - - - - - -
24/05:00am 24.0 ESE 17 21 1015.9 - - - - - - - - -
24/04:30am 24.1 SE 16 21 1015.6 - - - - - - - - -
24/04:00am 24.1 ESE 17 20 1015.3 - - - - - - - - -
24/03:30am 23.8 ESE 15 18 1015.2 - - - - - - - - -
24/03:00am 24.1 ESE 15 20 1015.1 - - - - - - - - -
24/02:30am 24.0 SE 15 19 1015.2 - - - - - - - - -
24/02:00am 24.1 ESE 16 19 1015.4 - - - - - - - - -
24/01:30am 24.1 ESE 17 20 1015.8 - - - - - - - - -
24/01:00am 24.2 ESE 17 21 1016.2 - - - - - - - - -
24/12:30am 24.4 SE 17 20 1016.5 - - - - - - - - -
24/12:00am 24.2 ESE 18 22 1016.7 - - - - - - - - -
 
Date/Time
EST
Temp

°C
Wind Pressure Rain
since 9am
mm
Weather Cloud Vis
km
Sea
Height
m
Swell
Dir
 
Speed
knots
Gust
knots
hPa Trend Height
m
Period
s
Dir
23/11:30pm 24.3 ESE 19 22 1016.8 - - - - - - - - -
23/11:00pm 24.2 ESE 18 22 1017.1 - - - - - - - - -
23/10:30pm 24.3 ESE 18 22 1017.3 - - - - - - - - -
23/10:00pm 24.4 ESE 19 23 1017.5 - - - - - - - - -
23/09:30pm 24.4 ESE 19 22 1017.4 - - - - - - - - -
23/09:00pm 24.3 ESE 18 23 1017.2 - - - - - - - - -
23/08:30pm 24.4 ESE 19 22 1016.9 - - - - - - - - -
23/08:00pm 24.2 ESE 18 22 1016.6 - - - - - - - - -
23/07:30pm 24.3 SE 18 21 1016.5 - - - - - - - - -
23/07:00pm 24.3 SE 19 23 1016.2 - - - - - - - - -
23/06:30pm 24.2 SE 19 23 1016.0 - - - - - - - - -
23/06:00pm 24.3 ESE 19 22 1015.5 - - - - - - - - -
23/05:30pm 24.4 SE 18 21 1015.2 - - - - - - - - -
23/05:00pm 24.5 SE 19 22 1014.7 - - - - - - - - -
23/04:30pm 24.6 SE 18 22 1014.3 - - - - - - - - -
23/04:00pm 24.6 SE 19 22 1014.2 - - - - - - - - -
23/03:30pm 24.5 SE 19 22 1014.1 - - - - - - - - -
23/03:00pm 24.7 SE 17 20 1014.1 - - - - - - - - -
23/02:30pm 24.5 SE 18 23 1014.1 - - - - - - - - -
23/02:00pm 24.5 SE 19 22 1014.4 - - - - - - - - -
23/01:30pm 24.6 SE 18 23 1014.5 - - - - - - - - -
23/01:00pm 24.3 SE 19 23 1014.6 - - - - - - - - -
23/12:30pm 24.4 SE 19 22 1015.1 - - - - - - - - -
23/12:00pm 24.3 SE 18 22 1015.4 - - - - - - - - -
23/11:30am 24.4 SE 18 22 1015.7 - - - - - - - - -
23/11:00am 24.2 SE 19 22 1015.9 - - - - - - - - -
23/10:30am 24.2 SE 20 23 1016.1 - - - - - - - - -
23/10:00am 24.3 SSE 19 22 1016.4 - - - - - - - - -
23/09:30am 24.2 SSE 20 24 1016.5 - - - - - - - - -
23/09:00am 24.2 SSE 20 23 1016.6 - - - - - - - - -
23/08:30am 24.1 SE 19 22 1016.5 - - - - - - - - -
23/08:00am 23.9 SE 21 24 1016.3 - - - - - - - - -
23/07:30am 24.0 SE 20 23 1016.3 - - - - - - - - -
23/07:00am 24.0 SE 20 24 1015.9 - - - - - - - - -
23/06:30am 23.8 SE 20 24 1015.8 - - - - - - - - -
23/06:00am 22.9 SSE 15 17 1015.6 - - - - - - - - -
23/05:30am 22.7 SSE 18 21 1015.4 - - - - - - - - -
23/05:00am 22.9 SSE 18 24 1015.2 - - - - - - - - -
23/04:30am 23.3 SE 16 19 1015.0 - - - - - - - - -
23/04:00am 23.1 SE 12 15 1014.9 - - - - - - - - -
23/03:38am 23.4 SE 17 27 1014.5 - - - - - - - - -
23/03:30am 23.8 SE 15 18 1014.7 - - - - - - - - -
23/03:00am 23.9 SE 14 17 1014.7 - - - - - - - - -
23/02:30am 23.8 SE 13 18 1014.8 - - - - - - - - -
23/02:00am 23.8 ESE 12 16 1015.2 - - - - - - - - -
23/01:30am 23.8 ESE 13 17 1015.7 - - - - - - - - -
23/01:00am 24.1 ESE 15 18 1016.2 - - - - - - - - -
23/12:30am 23.9 ESE 18 21 1016.6 - - - - - - - - -
23/12:00am 24.1 ESE 18 21 1016.9 - - - - - - - - -
 
Date/Time
EST
Temp

°C
Wind Pressure Rain
since 9am
mm
Weather Cloud Vis
km
Sea
Height
m
Swell
Dir
 
Speed
knots
Gust
knots
hPa Trend Height
m
Period
s
Dir
22/11:30pm 23.9 ESE 20 24 1017.1 - - - - - - - - -
22/11:00pm 24.0 SE 17 20 1017.4 - - - - - - - - -
22/10:30pm 24.2 SE 17 21 1017.8 - - - - - - - - -
22/10:00pm 24.3 SE 17 21 1018.0 - - - - - - - - -
22/09:30pm 24.1 ESE 17 21 1017.8 - - - - - - - - -
22/09:00pm 24.3 ESE 16 20 1017.7 - - - - - - - - -
22/08:30pm 24.3 ESE 18 21 1017.5 - - - - - - - - -
22/08:00pm 24.3 SE 18 22 1017.2 - - - - - - - - -
22/07:30pm 24.3 SE 18 22 1016.9 - - - - - - - - -
22/07:00pm 24.3 SE 20 24 1016.5 - - - - - - - - -
22/06:30pm 24.1 SE 18 22 1016.3 - - - - - - - - -
22/06:00pm 24.2 SSE 19 24 1016.1 - - - - - - - - -
22/05:30pm 24.3 SE 18 21 1015.6 - - - - - - - - -
22/05:00pm 24.4 SE 19 23 1015.3 - - - - - - - - -
22/04:44pm 24.5 SSE 18 29 1015.0 - - - - - - - - -
22/04:30pm 24.5 SE 19 23 1015.0 - - - - - - - - -
22/04:00pm 24.5 SE 18 23 1014.8 - - - - - - - - -
22/03:30pm 24.4 SE 19 22 1014.9 - - - - - - - - -
22/03:00pm 24.5 SE 19 23 1014.9 - - - - - - - - -
22/02:30pm 24.3 SE 18 22 1015.1 - - - - - - - - -
22/02:00pm 24.4 SE 19 22 1015.3 - - - - - - - - -
22/01:30pm 24.4 SE 18 21 1015.6 - - - - - - - - -
22/01:00pm 24.5 SE 18 21 1015.8 - - - - - - - - -
22/12:30pm 24.4 SE 19 23 1016.0 - - - - - - - - -
22/12:00pm 24.7 SE 19 24 1016.3 - - - - - - - - -
22/11:30am 24.5 SE 21 24 1016.8 - - - - - - - - -
22/11:00am 24.5 SE 21 25 1017.0 - - - - - - - - -
22/10:30am 24.6 SE 21 25 1017.2 - - - - - - - - -
22/10:00am 24.6 SE 20 24 1017.5 - - - - - - - - -
22/09:30am 24.5 SE 21 25 1017.5 - - - - - - - - -
22/09:00am 24.5 SE 21 26 1017.5 - - - - - - - - -
22/08:30am 24.7 SE 21 25 1017.3 - - - - - - - - -
22/08:00am 24.6 SE 22 26 1017.2 - - - - - - - - -
22/07:30am 24.4 SE 21 25 1016.8 - - - - - - - - -
22/07:00am 24.4 SE 20 24 1016.8 - - - - - - - - -
22/06:30am 24.5 SE 20 24 1016.5 - - - - - - - - -
22/06:00am 24.2 SE 19 23 1016.2 - - - - - - - - -
22/05:30am 24.0 SE 21 25 1015.7 - - - - - - - - -
22/05:00am 24.1 SE 21 25 1015.6 - - - - - - - - -
22/04:30am 24.2 SE 22 26 1015.3 - - - - - - - - -
22/04:00am 24.1 SSE 23 27 1015.1 - - - - - - - - -
22/03:30am 24.2 SE 23 29 1015.0 - - - - - - - - -
22/03:00am 23.8 SSE 24 28 1015.2 - - - - - - - - -
22/02:30am 24.1 SE 23 27 1015.5 - - - - - - - - -
22/02:00am 24.5 SE 21 24 1015.9 - - - - - - - - -
22/01:30am 24.4 SE 21 25 1016.2 - - - - - - - - -
22/01:00am 24.6 SE 22 25 1016.6 - - - - - - - - -
22/12:30am 24.4 SE 21 25 1017.1 - - - - - - - - -
22/12:00am 24.6 SE 21 25 1017.7 - - - - - - - - -

Other Formats:

Comma delimited format used in spreadsheet applications
http://www.bom.gov.au/fwo/IDQ60701/IDQ60701.94293.axf

JavaScript Object Notation format (JSON) in row-major order
http://www.bom.gov.au/fwo/IDQ60701/IDQ60701.94293.json